createdAt,value
2023-03-28T00:01:34.935Z,688.38
2023-03-28T00:06:38.502Z,691.25
2023-03-28T00:11:40.719Z,687.30
2023-03-28T00:16:46.856Z,691.08
2023-03-28T00:21:51.307Z,625.22
2023-03-28T00:27:00.425Z,701.28
2023-03-28T00:32:03.480Z,691.17
2023-03-28T00:37:05.569Z,696.65
2023-03-28T00:42:14.281Z,691.22
2023-03-28T00:47:38.971Z,698.40
2023-03-28T00:52:45.881Z,693.25
2023-03-28T00:57:49.118Z,699.33
2023-03-28T01:02:56.192Z,697.95
2023-03-28T01:08:20.061Z,697.65
2023-03-28T01:13:28.112Z,694.67
2023-03-28T01:18:30.344Z,696.33
2023-03-28T01:23:39.843Z,692.25
2023-03-28T01:29:15.077Z,679.88
2023-03-28T01:34:50.933Z,675.42
2023-03-28T01:40:13.571Z,676.17
2023-03-28T01:45:41.629Z,681.85
2023-03-28T01:51:07.408Z,685.75
2023-03-28T01:56:38.782Z,693.42
2023-03-28T02:02:04.181Z,691.42
2023-03-28T02:07:09.078Z,695.30
2023-03-28T02:12:23.851Z,687.00
2023-03-28T02:17:58.232Z,695.35
2023-03-28T02:23:27.162Z,691.42
2023-03-28T02:34:11.134Z,684.28
2023-03-28T02:39:12.980Z,688.42
2023-03-28T02:44:21.003Z,686.78
2023-03-28T02:50:06.780Z,688.17
2023-03-28T02:55:38.339Z,687.38
2023-03-28T03:00:51.951Z,693.00
2023-03-28T03:05:54.338Z,684.67
2023-03-28T03:10:56.685Z,688.67
2023-03-28T03:15:58.729Z,685.53
2023-03-28T03:21:01.883Z,691.47
2023-03-28T03:26:04.246Z,685.65
2023-03-28T03:31:29.696Z,689.25
2023-03-28T03:36:54.946Z,687.72
2023-03-28T03:41:57.408Z,689.35
2023-03-28T03:46:59.212Z,692.25
2023-03-28T03:52:01.022Z,693.13
2023-03-28T03:57:03.145Z,692.25
2023-03-28T04:02:06.459Z,691.58
2023-03-28T04:07:14.954Z,695.35
2023-03-28T04:12:17.448Z,690.25
2023-03-28T04:17:29.991Z,689.20
2023-03-28T04:22:35.918Z,690.35
2023-03-28T04:27:48.363Z,687.30
2023-03-28T04:32:54.455Z,683.55
2023-03-28T04:38:02.690Z,687.03
2023-03-28T04:43:04.643Z,674.13
2023-03-28T04:53:25.384Z,670.08
2023-03-28T04:58:45.545Z,650.40
2023-03-28T05:03:48.029Z,685.70
2023-03-28T05:08:50.985Z,690.33
2023-03-28T05:13:53.169Z,690.05
2023-03-28T05:19:04.715Z,688.75
2023-03-28T05:24:25.185Z,689.40
2023-03-28T05:29:27.938Z,683.20
2023-03-28T05:34:30.686Z,691.05
2023-03-28T05:39:33.149Z,684.17
2023-03-28T05:44:38.569Z,682.88
2023-03-28T05:50:00.736Z,679.42
2023-03-28T05:55:02.686Z,679.70
2023-03-28T06:00:14.857Z,679.33
2023-03-28T06:05:26.815Z,679.95
2023-03-28T06:10:28.999Z,686.25
2023-03-28T06:15:51.699Z,685.65
2023-03-28T06:20:57.996Z,692.10
2023-03-28T06:26:01.918Z,688.05
2023-03-28T06:31:12.068Z,688.95
2023-03-28T06:36:14.271Z,691.35
2023-03-28T06:41:17.240Z,695.17
2023-03-28T06:46:20.463Z,697.05
2023-03-28T06:51:22.546Z,698.50
2023-03-28T06:56:24.464Z,700.25
2023-03-28T07:01:26.571Z,701.15
2023-03-28T07:06:38.826Z,702.72
2023-03-28T07:11:41.092Z,710.83
2023-03-28T07:16:43.367Z,711.13
2023-03-28T07:21:46.179Z,706.17
2023-03-28T07:26:49.762Z,714.38
2023-03-28T07:31:52.188Z,709.30
2023-03-28T07:36:54.135Z,717.42
2023-03-28T07:42:15.643Z,721.15
2023-03-28T07:47:18.315Z,720.95
2023-03-28T07:52:20.759Z,729.15
2023-03-28T07:57:22.793Z,723.78
2023-03-28T08:02:39.764Z,721.40
2023-03-28T08:07:46.383Z,720.92
2023-03-28T08:12:48.698Z,720.03
2023-03-28T08:17:50.694Z,722.75
2023-03-28T08:22:53.037Z,721.97
2023-03-28T08:28:22.288Z,728.40
2023-03-28T08:33:24.473Z,732.15
2023-03-28T08:38:27.069Z,738.38
2023-03-28T08:43:54.405Z,735.47
2023-03-28T08:48:57.830Z,743.70
2023-03-28T08:54:18.651Z,741.53
2023-03-28T08:59:43.319Z,746.08
2023-03-28T09:04:46.464Z,737.95
2023-03-28T09:10:11.351Z,753.25
2023-03-28T09:15:47.716Z,747.97
2023-03-28T09:21:03.220Z,765.38
2023-03-28T09:26:17.606Z,735.95
2023-03-28T09:31:31.014Z,738.25
2023-03-28T09:36:49.033Z,733.72
2023-03-28T09:42:03.356Z,734.00
2023-03-28T09:47:37.570Z,729.10
2023-03-28T09:52:46.691Z,732.53
2023-03-28T09:58:09.118Z,735.38
2023-03-28T10:03:34.890Z,734.80
2023-03-28T10:08:40.393Z,736.13
2023-03-28T10:13:59.135Z,742.40
2023-03-28T10:19:01.769Z,750.78
2023-03-28T10:24:21.958Z,751.22
2023-03-28T10:29:37.165Z,746.63
2023-03-28T10:34:39.788Z,751.65
2023-03-28T10:40:02.502Z,747.17
2023-03-28T10:45:37.441Z,744.95
2023-03-28T10:50:46.002Z,735.05
2023-03-28T10:56:10.955Z,737.47
2023-03-28T11:01:24.862Z,736.47
2023-03-28T11:06:53.881Z,745.75
2023-03-28T11:12:54.893Z,762.03
2023-03-28T11:18:24.569Z,744.33
2023-03-28T11:23:46.035Z,746.88
2023-03-28T11:29:19.776Z,754.05
2023-03-28T11:34:30.718Z,751.20
2023-03-28T11:39:43.150Z,744.70
2023-03-28T11:45:01.453Z,752.85
2023-03-28T11:50:18.820Z,758.05
2023-03-28T11:55:36.587Z,761.15
2023-03-28T12:01:08.678Z,758.50
2023-03-28T12:06:19.817Z,752.20
2023-03-28T12:11:42.204Z,758.33
2023-03-28T12:16:49.211Z,768.43
2023-03-28T12:22:02.651Z,758.93
2023-03-28T12:27:39.499Z,753.43
2023-03-28T12:32:51.895Z,757.05
2023-03-28T12:38:24.050Z,757.60
2023-03-28T12:43:59.990Z,764.47
2023-03-28T12:49:19.821Z,770.63
2023-03-28T12:54:23.602Z,770.13
2023-03-28T12:59:59.054Z,766.00
2023-03-28T13:05:18.126Z,773.20
2023-03-28T13:10:42.748Z,716.38
2023-03-28T13:16:16.294Z,768.30
2023-03-28T13:21:54.582Z,762.97
2023-03-28T13:26:57.353Z,759.45
2023-03-28T13:32:04.373Z,764.47
2023-03-28T13:37:44.307Z,779.13
2023-03-28T13:42:57.962Z,758.60
2023-03-28T13:48:12.092Z,769.25
2023-03-28T13:53:15.451Z,765.42
2023-03-28T13:58:19.042Z,757.53
2023-03-28T14:03:21.141Z,759.83
2023-03-28T14:08:25.611Z,769.03
2023-03-28T14:13:30.488Z,764.60
2023-03-28T14:18:38.121Z,758.08
2023-03-28T14:23:50.475Z,762.35
2023-03-28T14:29:01.167Z,757.78
2023-03-28T14:34:38.596Z,759.28
2023-03-28T14:39:40.611Z,753.70
2023-03-28T14:44:45.108Z,746.53
2023-03-28T14:49:47.235Z,755.78
2023-03-28T14:54:50.221Z,752.90
2023-03-28T14:59:53.960Z,763.03
2023-03-28T15:05:04.375Z,755.47
2023-03-28T15:10:19.686Z,758.05
2023-03-28T15:15:29.388Z,753.00
2023-03-28T15:20:35.623Z,761.33
2023-03-28T15:25:37.606Z,760.45
2023-03-28T15:30:45.580Z,757.03
2023-03-28T15:35:48.877Z,766.40
2023-03-28T15:40:52.810Z,766.30
2023-03-28T15:46:09.256Z,767.00
2023-03-28T15:51:18.443Z,766.25
2023-03-28T15:56:27.898Z,767.63
2023-03-28T16:01:33.148Z,762.60
2023-03-28T16:06:44.710Z,758.47
2023-03-28T16:11:49.417Z,760.00
2023-03-28T16:17:10.086Z,767.05
2023-03-28T16:22:21.159Z,762.13
2023-03-28T16:27:28.243Z,762.58
2023-03-28T16:32:30.260Z,767.97
2023-03-28T16:37:32.088Z,763.75
2023-03-28T16:42:33.928Z,758.40
2023-03-28T16:47:36.113Z,756.83
2023-03-28T16:52:40.657Z,755.85
2023-03-28T16:57:43.293Z,762.75
2023-03-28T17:02:47.531Z,755.80
2023-03-28T17:07:49.557Z,749.97
2023-03-28T17:12:51.384Z,750.22
2023-03-28T17:17:53.333Z,759.47
2023-03-28T17:22:55.352Z,758.70
2023-03-28T17:27:57.264Z,748.35
2023-03-28T17:32:59.574Z,755.05
2023-03-28T17:38:01.417Z,741.00
2023-03-28T17:43:04.173Z,749.78
2023-03-28T17:48:06.246Z,746.47
2023-03-28T17:53:08.168Z,745.92
2023-03-28T17:58:10.082Z,742.08
2023-03-28T18:03:12.040Z,738.33
2023-03-28T18:08:40.182Z,749.28
2023-03-28T18:13:42.264Z,719.83
2023-03-28T18:18:44.861Z,729.15
2023-03-28T18:23:48.247Z,728.60
2023-03-28T18:28:52.806Z,718.45
2023-03-28T18:33:54.828Z,722.40
2023-03-28T18:38:56.772Z,725.08
2023-03-28T18:43:59.178Z,722.67
2023-03-28T18:49:01.887Z,725.67
2023-03-28T18:54:03.976Z,723.15
2023-03-28T18:59:06.170Z,723.65
2023-03-28T19:04:08.388Z,724.47
2023-03-28T19:09:10.833Z,719.35
2023-03-28T19:14:13.144Z,724.13
2023-03-28T19:19:15.428Z,721.63
2023-03-28T19:24:19.949Z,729.88
2023-03-28T19:29:21.794Z,726.65
2023-03-28T19:34:23.664Z,729.03
2023-03-28T19:39:25.496Z,730.03
2023-03-28T19:44:27.342Z,728.60
2023-03-28T19:49:31.265Z,735.55
2023-03-28T19:54:33.140Z,728.20
2023-03-28T19:59:35.405Z,725.05
2023-03-28T20:04:37.357Z,732.95
2023-03-28T20:09:41.437Z,733.78
2023-03-28T20:14:49.174Z,732.63
2023-03-28T20:19:53.914Z,729.58
2023-03-28T20:24:56.908Z,724.45
2023-03-28T20:30:01.310Z,725.03
2023-03-28T20:35:03.768Z,727.60
2023-03-28T20:40:11.649Z,730.20
2023-03-28T20:45:33.947Z,733.53
2023-03-28T20:50:37.505Z,729.72
2023-03-28T20:55:40.425Z,732.35
2023-03-28T21:00:43.767Z,733.53
2023-03-28T21:05:46.750Z,729.60
2023-03-28T21:10:53.782Z,731.10
2023-03-28T21:15:57.433Z,732.55
2023-03-28T21:20:59.506Z,728.58
2023-03-28T21:26:01.539Z,730.05
2023-03-28T21:31:07.780Z,746.70
2023-03-28T21:36:15.953Z,734.95
2023-03-28T21:41:19.361Z,729.53
2023-03-28T21:46:21.936Z,731.17
2023-03-28T21:51:23.858Z,725.53
2023-03-28T21:56:26.233Z,723.80
2023-03-28T22:01:28.201Z,728.47
2023-03-28T22:06:30.657Z,727.25
2023-03-28T22:11:32.887Z,729.22
2023-03-28T22:16:37.472Z,721.78
2023-03-28T22:21:39.332Z,727.78
2023-03-28T22:26:42.200Z,725.08
2023-03-28T22:31:44.079Z,725.88
2023-03-28T22:36:46.158Z,726.35
2023-03-28T22:41:48.743Z,724.92
2023-03-28T22:46:51.186Z,721.47
2023-03-28T22:51:56.136Z,720.17
2023-03-28T22:56:58.768Z,722.55
2023-03-28T23:02:00.703Z,719.47
2023-03-28T23:07:02.669Z,723.13
2023-03-28T23:12:04.787Z,730.40
2023-03-28T23:17:06.656Z,728.88
2023-03-28T23:22:10.111Z,728.13
2023-03-28T23:27:12.226Z,724.22
2023-03-28T23:32:14.092Z,722.03
2023-03-28T23:37:15.955Z,724.55
2023-03-28T23:42:17.775Z,718.42
2023-03-28T23:47:20.606Z,719.78
2023-03-28T23:52:22.470Z,719.70
2023-03-28T23:57:25.403Z,728.85
